Sun Universe — 3FOQ4 — position and weather

sailwx.info

Track history (hours):
 
Tides and Currents Weather Stations Pressure Air Temp Water Temp Dewpoint Dewpoint Depression Visibility Wind Speed Wind Dir Waves Ship Positions

Sun Universe

Last reported at 2014-Dec-02 23:29 UTC. Time now 2014-Dec-18 23:49 UTC.
Position N 22°18' E 114°05'.
Warning: this ship's position is 16 days out of date.

Length 116 m; draft 8.6 m.

Type: Cargo ship. MMSI: 371647000.

Date/timePositionNaut miles runAvg speedWind from/ knotsBaromVisibWave heightAir tempDewpointWater temp
2014-Dec-02 23:29N 22°18' E 114°05'1 0.1
2014-Dec-02 05:32N 22°17' E 114°06'8 8.3
2014-Dec-02 04:32N 22°11' E 114°12'4 0.8
2014-Dec-01 23:18N 22°10' E 114°08'151 6.9
2014-Dec-01 01:30N 22°56' E 116°43'1313.2
2014-Dec-01 00:30N 23°01' E 116°57'6412.3
2014-Nov-30 19:17N 23°38' E 117°53'1312.0
2014-Nov-30 18:14N 23°47' E 118°03'811.9
2014-Nov-30 17:33N 23°52' E 118°10'1212.4
2014-Nov-30 16:33N 24°00' E 118°20'1312.3
2014-Nov-30 15:32N 24°09' E 118°30'1812.5
2014-Nov-30 14:04N 24°21' E 118°45'713.1
2014-Nov-30 13:32N 24°26' E 118°51'1313.1
2014-Nov-30 12:33N 24°34' E 119°01'1313.0
2014-Nov-30 11:33N 24°43' E 119°12'  
Track history (hours):
 
Tides and Currents Weather Stations Pressure Air Temp Water Temp Dewpoint Dewpoint Depression Visibility Wind Speed Wind Dir Waves Ship Positions

Sun Universe

Last reported at 2014-Dec-02 23:29 UTC. Time now 2014-Dec-18 23:49 UTC.
Position N 22°18' E 114°05'.
Warning: this ship's position is 16 days out of date.

Length 116 m; draft 8.6 m.

Type: Cargo ship. MMSI: 371647000.

Date/timePositionNaut miles runAvg speedWind from/ knotsBaromVisibWave heightAir tempDewpointWater temp
2014-Dec-02 23:29N 22°18' E 114°05'1 0.1
2014-Dec-02 05:32N 22°17' E 114°06'8 8.3
2014-Dec-02 04:32N 22°11' E 114°12'4 0.8
2014-Dec-01 23:18N 22°10' E 114°08'151 6.9
2014-Dec-01 01:30N 22°56' E 116°43'1313.2
2014-Dec-01 00:30N 23°01' E 116°57'6412.3
2014-Nov-30 19:17N 23°38' E 117°53'1312.0
2014-Nov-30 18:14N 23°47' E 118°03'811.9
2014-Nov-30 17:33N 23°52' E 118°10'1212.4
2014-Nov-30 16:33N 24°00' E 118°20'1312.3
2014-Nov-30 15:32N 24°09' E 118°30'1812.5
2014-Nov-30 14:04N 24°21' E 118°45'713.1
2014-Nov-30 13:32N 24°26' E 118°51'1313.1
2014-Nov-30 12:33N 24°34' E 119°01'1313.0
2014-Nov-30 11:33N 24°43' E 119°12'  

Dump ship's entire track history